TimeCST,TemperatureF,Dew PointF,Humidity,Sea Level PressureIn,VisibilityMPH,Wind Direction,Wind SpeedMPH,Gust SpeedMPH,PrecipitationIn,Events,Conditions,WindDirDegrees,DateUTC
12:53 AM,30.0,17.1,59,30.22,10.0,South,13.8,-,N/A,,Clear,180,2013-01-22 06:53:00
1:53 AM,28.0,17.1,63,30.23,10.0,South,3.5,-,N/A,,Clear,180,2013-01-22 07:53:00
2:53 AM,28.0,18.0,66,30.22,10.0,South,9.2,-,N/A,,Clear,180,2013-01-22 08:53:00
3:53 AM,28.0,17.1,63,30.21,10.0,SW,3.5,-,N/A,,Clear,230,2013-01-22 09:53:00
4:53 AM,30.0,18.0,61,30.18,10.0,SSW,9.2,-,N/A,,Clear,210,2013-01-22 10:53:00
5:53 AM,28.9,18.0,64,30.18,10.0,SW,5.8,-,N/A,,Clear,220,2013-01-22 11:53:00
6:53 AM,28.0,18.0,66,30.19,10.0,SW,8.1,-,N/A,,Clear,220,2013-01-22 12:53:00
7:53 AM,27.0,19.9,75,30.19,10.0,SSW,5.8,-,N/A,,Clear,210,2013-01-22 13:53:00
8:53 AM,33.1,21.9,64,30.18,10.0,SSW,9.2,-,N/A,,Clear,200,2013-01-22 14:53:00
10:53 AM,44.1,26.1,49,30.20,10.0,SW,5.8,-,N/A,,Clear,220,2013-01-22 16:53:00
11:53 AM,48.0,26.1,42,30.18,10.0,WSW,8.1,-,N/A,,Clear,250,2013-01-22 17:53:00
12:53 PM,54.0,27.0,35,30.13,10.0,SW,8.1,-,N/A,,Clear,230,2013-01-22 18:53:00
1:53 PM,57.9,25.0,28,30.10,10.0,Variable,4.6,-,N/A,,Clear,0,2013-01-22 19:53:00
2:53 PM,60.1,26.1,27,30.10,10.0,NW,4.6,-,N/A,,Clear,320,2013-01-22 20:53:00
3:53 PM,60.1,25.0,26,30.10,10.0,Calm,Calm,-,N/A,,Clear,0,2013-01-22 21:53:00
4:53 PM,60.1,26.1,27,30.11,10.0,NNE,5.8,-,N/A,,Clear,30,2013-01-22 22:53:00
5:53 PM,48.0,27.0,44,30.14,10.0,NE,8.1,-,N/A,,Clear,40,2013-01-22 23:53:00
6:53 PM,39.0,27.0,62,30.18,10.0,NE,5.8,-,N/A,,Clear,40,2013-01-23 00:53:00
7:53 PM,37.0,26.1,65,30.19,10.0,ENE,3.5,-,N/A,,Clear,70,2013-01-23 01:53:00
8:53 PM,33.1,26.1,75,30.20,10.0,Calm,Calm,-,N/A,,Clear,0,2013-01-23 02:53:00
9:53 PM,33.1,25.0,72,30.22,10.0,Calm,Calm,-,N/A,,Clear,0,2013-01-23 03:53:00
10:53 PM,30.0,24.1,79,30.22,10.0,Calm,Calm,-,N/A,,Clear,0,2013-01-23 04:53:00
11:53 PM,27.0,23.0,85,30.22,10.0,Calm,Calm,-,N/A,,Clear,0,2013-01-23 05:53:00